Whitacre, Virginia
Current Conditions -  °F | °C
As of 11:53 PM on Saturday 25 Oct 2014 (Local Time) from KMRB Reporting Station
Clear Clear  
Wind Chill: 64°   Ceiling: Unl
Heat Index: 64°   Visibility: 10mi
Dew Point: 48°   Wind: 13mph
Humidity: 56%   Direction: 250°WSW
Pressure: 29.7"   Gusts: NA
Location:  39.3835°N, 78.3051°W
Report Text: KMRB 260353Z AUTO 25011KT 10SM CLR 18/09 A2970 RMK AO2 SLP055 T01780089 TSNO
Loading
Personal Weather Stations






























Interactive Weather Map
Tropical Storm Tracking
New forecast layout! Learn more

10-Day Weather Forecast

Advertisements
Track Severe Weather on mobile